sensor_id;sensor_type;location;lat;lon;timestamp;pressure;altitude;pressure_sealevel;temperature;humidity
8573;BME280;4324;42.012;24.872;2022-11-18T00:01:09;97912.75;;;10.70;100.00
8573;BME280;4324;42.012;24.872;2022-11-18T00:03:36;97902.31;;;10.61;100.00
8573;BME280;4324;42.012;24.872;2022-11-18T00:06:07;97853.97;;;10.25;100.00
8573;BME280;4324;42.012;24.872;2022-11-18T00:08:36;97885.22;;;10.36;100.00
8573;BME280;4324;42.012;24.872;2022-11-18T00:11:04;97871.25;;;10.42;100.00
8573;BME280;4324;42.012;24.872;2022-11-18T00:13:31;97900.81;;;10.52;100.00
8573;BME280;4324;42.012;24.872;2022-11-18T00:16:16;97877.91;;;10.38;100.00
8573;BME280;4324;42.012;24.872;2022-11-18T00:18:43;97843.91;;;10.13;100.00
8573;BME280;4324;42.012;24.872;2022-11-18T00:21:12;97894.41;;;10.40;100.00
8573;BME280;4324;42.012;24.872;2022-11-18T00:23:39;97897.28;;;10.38;100.00
8573;BME280;4324;42.012;24.872;2022-11-18T00:26:08;97913.19;;;10.45;100.00
8573;BME280;4324;42.012;24.872;2022-11-18T00:28:37;97899.97;;;10.24;100.00
8573;BME280;4324;42.012;24.872;2022-11-18T00:31:06;97928.81;;;10.40;100.00
8573;BME280;4324;42.012;24.872;2022-11-18T00:33:34;97878.31;;;10.13;100.00
8573;BME280;4324;42.012;24.872;2022-11-18T00:36:01;97914.94;;;10.38;100.00
8573;BME280;4324;42.012;24.872;2022-11-18T00:38:30;97914.72;;;10.33;100.00
8573;BME280;4324;42.012;24.872;2022-11-18T00:41:00;97915.09;;;10.30;100.00
8573;BME280;4324;42.012;24.872;2022-11-18T00:43:28;97921.94;;;10.24;100.00
8573;BME280;4324;42.012;24.872;2022-11-18T00:45:55;97894.47;;;10.04;100.00
8573;BME280;4324;42.012;24.872;2022-11-18T00:48:22;97897.69;;;9.99;100.00
8573;BME280;4324;42.012;24.872;2022-11-18T00:50:49;97936.16;;;10.23;100.00
8573;BME280;4324;42.012;24.872;2022-11-18T00:53:17;97934.09;;;10.18;100.00
8573;BME280;4324;42.012;24.872;2022-11-18T00:55:46;97927.59;;;10.21;100.00
8573;BME280;4324;42.012;24.872;2022-11-18T00:58:13;97924.31;;;10.19;100.00
8573;BME280;4324;42.012;24.872;2022-11-18T01:00:40;97924.53;;;10.17;100.00
8573;BME280;4324;42.012;24.872;2022-11-18T01:03:07;97914.06;;;10.09;100.00
8573;BME280;4324;42.012;24.872;2022-11-18T01:05:34;97931.22;;;10.13;100.00
8573;BME280;4324;42.012;24.872;2022-11-18T01:08:02;97917.47;;;10.03;100.00
8573;BME280;4324;42.012;24.872;2022-11-18T01:10:29;97914.81;;;10.03;100.00
8573;BME280;4324;42.012;24.872;2022-11-18T01:12:57;97929.56;;;10.12;100.00
8573;BME280;4324;42.012;24.872;2022-11-18T01:15:43;97911.56;;;10.01;100.00
8573;BME280;4324;42.012;24.872;2022-11-18T01:18:11;97923.41;;;10.05;100.00
8573;BME280;4324;42.012;24.872;2022-11-18T01:20:38;97922.16;;;10.01;100.00
8573;BME280;4324;42.012;24.872;2022-11-18T01:23:05;97915.44;;;9.84;100.00
8573;BME280;4324;42.012;24.872;2022-11-18T01:25:34;97918.63;;;9.94;100.00
8573;BME280;4324;42.012;24.872;2022-11-18T01:28:03;97852.94;;;9.55;100.00
8573;BME280;4324;42.012;24.872;2022-11-18T01:30:32;97864.31;;;9.55;100.00
8573;BME280;4324;42.012;24.872;2022-11-18T01:33:00;97830.81;;;9.41;100.00
8573;BME280;4324;42.012;24.872;2022-11-18T01:35:27;97915.53;;;9.90;100.00
8573;BME280;4324;42.012;24.872;2022-11-18T01:37:54;97908.13;;;9.86;100.00
8573;BME280;4324;42.012;24.872;2022-11-18T01:40:21;97796.47;;;9.19;100.00
8573;BME280;4324;42.012;24.872;2022-11-18T01:42:48;97886.50;;;9.76;100.00
8573;BME280;4324;42.012;24.872;2022-11-18T01:45:25;97892.47;;;9.84;100.00
8573;BME280;4324;42.012;24.872;2022-11-18T01:47:58;97891.53;;;9.92;100.00
8573;BME280;4324;42.012;24.872;2022-11-18T01:50:26;97873.41;;;9.89;100.00
8573;BME280;4324;42.012;24.872;2022-11-18T01:52:57;97890.00;;;10.04;100.00
8573;BME280;4324;42.012;24.872;2022-11-18T01:55:29;97872.28;;;9.98;100.00
8573;BME280;4324;42.012;24.872;2022-11-18T01:58:02;97884.34;;;10.07;100.00
8573;BME280;4324;42.012;24.872;2022-11-18T02:00:33;97813.94;;;9.57;100.00
8573;BME280;4324;42.012;24.872;2022-11-18T02:03:01;97914.44;;;10.06;100.00
8573;BME280;4324;42.012;24.872;2022-11-18T02:05:29;97915.03;;;10.02;100.00
8573;BME280;4324;42.012;24.872;2022-11-18T02:07:59;97907.84;;;9.96;100.00
8573;BME280;4324;42.012;24.872;2022-11-18T02:10:26;97888.94;;;9.77;100.00
8573;BME280;4324;42.012;24.872;2022-11-18T02:12:54;97898.06;;;9.75;100.00
8573;BME280;4324;42.012;24.872;2022-11-18T02:15:29;97872.63;;;9.52;100.00
8573;BME280;4324;42.012;24.872;2022-11-18T02:18:09;97894.94;;;9.64;100.00
8573;BME280;4324;42.012;24.872;2022-11-18T02:20:41;97881.91;;;9.48;100.00
8573;BME280;4324;42.012;24.872;2022-11-18T02:29:02;97920.47;;;9.57;100.00
8573;BME280;4324;42.012;24.872;2022-11-18T02:31:34;97916.00;;;9.58;100.00
8573;BME280;4324;42.012;24.872;2022-11-18T02:34:11;97878.78;;;9.23;100.00
8573;BME280;4324;42.012;24.872;2022-11-18T02:36:45;97883.19;;;9.16;100.00
8573;BME280;4324;42.012;24.872;2022-11-18T02:39:27;97912.63;;;9.34;100.00
8573;BME280;4324;42.012;24.872;2022-11-18T02:41:57;97918.13;;;9.33;100.00
8573;BME280;4324;42.012;24.872;2022-11-18T02:44:28;97897.72;;;9.27;100.00
8573;BME280;4324;42.012;24.872;2022-11-18T02:46:59;97906.03;;;9.24;100.00
8573;BME280;4324;42.012;24.872;2022-11-18T02:49:30;97916.13;;;9.35;100.00
8573;BME280;4324;42.012;24.872;2022-11-18T02:51:59;97878.19;;;9.06;100.00
8573;BME280;4324;42.012;24.872;2022-11-18T02:54:28;97896.81;;;9.19;100.00
8573;BME280;4324;42.012;24.872;2022-11-18T02:56:55;97845.81;;;8.83;100.00
8573;BME280;4324;42.012;24.872;2022-11-18T02:59:28;97868.09;;;8.95;100.00
8573;BME280;4324;42.012;24.872;2022-11-18T03:01:54;97879.09;;;8.99;100.00
8573;BME280;4324;42.012;24.872;2022-11-18T03:04:24;97892.84;;;9.09;100.00
8573;BME280;4324;42.012;24.872;2022-11-18T03:06:58;97883.19;;;9.01;100.00
8573;BME280;4324;42.012;24.872;2022-11-18T03:09:31;97899.91;;;9.08;100.00
8573;BME280;4324;42.012;24.872;2022-11-18T03:12:06;97888.47;;;9.01;100.00
8573;BME280;4324;42.012;24.872;2022-11-18T03:14:42;97881.38;;;9.02;100.00
8573;BME280;4324;42.012;24.872;2022-11-18T03:17:17;97875.44;;;8.85;100.00
8573;BME280;4324;42.012;24.872;2022-11-18T03:19:57;97885.38;;;8.83;100.00
8573;BME280;4324;42.012;24.872;2022-11-18T03:22:32;97891.84;;;8.95;100.00
8573;BME280;4324;42.012;24.872;2022-11-18T03:25:03;97883.94;;;8.95;100.00
8573;BME280;4324;42.012;24.872;2022-11-18T03:27:34;97842.88;;;8.78;100.00
8573;BME280;4324;42.012;24.872;2022-11-18T03:30:07;97884.00;;;9.16;100.00
8573;BME280;4324;42.012;24.872;2022-11-18T03:32:38;97879.75;;;9.37;100.00
8573;BME280;4324;42.012;24.872;2022-11-18T03:35:09;97846.69;;;9.41;100.00
8573;BME280;4324;42.012;24.872;2022-11-18T03:37:40;97877.56;;;9.77;100.00
8573;BME280;4324;42.012;24.872;2022-11-18T03:40:16;97855.97;;;9.73;100.00
8573;BME280;4324;42.012;24.872;2022-11-18T03:42:47;97889.63;;;10.07;100.00
8573;BME280;4324;42.012;24.872;2022-11-18T03:45:21;97877.94;;;10.16;100.00
8573;BME280;4324;42.012;24.872;2022-11-18T03:47:53;97878.88;;;10.30;100.00
8573;BME280;4324;42.012;24.872;2022-11-18T03:50:25;97859.72;;;10.28;100.00
8573;BME280;4324;42.012;24.872;2022-11-18T03:52:53;97855.91;;;10.31;100.00
8573;BME280;4324;42.012;24.872;2022-11-18T03:55:23;97864.28;;;10.41;100.00
8573;BME280;4324;42.012;24.872;2022-11-18T03:57:56;97886.38;;;10.55;100.00
8573;BME280;4324;42.012;24.872;2022-11-18T04:00:32;97880.66;;;10.51;100.00
8573;BME280;4324;42.012;24.872;2022-11-18T04:02:59;97892.13;;;10.58;100.00
8573;BME280;4324;42.012;24.872;2022-11-18T04:05:27;97906.44;;;10.71;100.00
8573;BME280;4324;42.012;24.872;2022-11-18T04:07:58;97906.91;;;10.46;100.00
8573;BME280;4324;42.012;24.872;2022-11-18T04:10:30;97911.66;;;9.93;100.00
8573;BME280;4324;42.012;24.872;2022-11-18T04:13:02;97932.13;;;9.48;100.00
8573;BME280;4324;42.012;24.872;2022-11-18T04:15:33;97950.38;;;9.13;100.00
8573;BME280;4324;42.012;24.872;2022-11-18T04:18:02;97963.03;;;8.88;100.00
8573;BME280;4324;42.012;24.872;2022-11-18T04:20:30;97968.44;;;8.57;100.00
8573;BME280;4324;42.012;24.872;2022-11-18T04:22:58;97974.19;;;8.38;100.00
8573;BME280;4324;42.012;24.872;2022-11-18T04:25:25;97976.94;;;8.21;100.00
8573;BME280;4324;42.012;24.872;2022-11-18T04:27:52;97964.03;;;8.04;100.00
8573;BME280;4324;42.012;24.872;2022-11-18T04:30:20;97950.56;;;7.98;100.00
8573;BME280;4324;42.012;24.872;2022-11-18T04:32:48;97968.72;;;8.16;100.00
8573;BME280;4324;42.012;24.872;2022-11-18T04:35:16;97954.25;;;8.12;100.00
8573;BME280;4324;42.012;24.872;2022-11-18T04:37:43;97928.53;;;7.91;100.00
8573;BME280;4324;42.012;24.872;2022-11-18T04:40:11;97946.50;;;8.11;100.00
8573;BME280;4324;42.012;24.872;2022-11-18T04:42:38;97939.06;;;8.14;100.00
8573;BME280;4324;42.012;24.872;2022-11-18T04:45:06;97972.84;;;8.42;100.00
8573;BME280;4324;42.012;24.872;2022-11-18T04:47:33;97968.56;;;8.41;100.00
8573;BME280;4324;42.012;24.872;2022-11-18T04:50:05;97968.75;;;8.39;100.00
8573;BME280;4324;42.012;24.872;2022-11-18T04:52:32;97852.63;;;7.64;100.00
8573;BME280;4324;42.012;24.872;2022-11-18T04:54:59;97871.66;;;7.74;100.00
8573;BME280;4324;42.012;24.872;2022-11-18T04:57:26;97867.84;;;7.76;100.00
8573;BME280;4324;42.012;24.872;2022-11-18T04:59:53;97892.78;;;7.89;100.00
8573;BME280;4324;42.012;24.872;2022-11-18T05:02:20;97925.41;;;8.11;100.00
8573;BME280;4324;42.012;24.872;2022-11-18T05:04:50;97908.31;;;8.07;100.00
8573;BME280;4324;42.012;24.872;2022-11-18T05:07:19;97934.19;;;8.26;100.00
8573;BME280;4324;42.012;24.872;2022-11-18T05:09:45;97950.28;;;8.39;100.00
8573;BME280;4324;42.012;24.872;2022-11-18T05:12:13;97949.47;;;8.39;100.00
8573;BME280;4324;42.012;24.872;2022-11-18T05:14:57;97937.41;;;8.36;100.00
8573;BME280;4324;42.012;24.872;2022-11-18T05:17:24;97907.16;;;8.09;100.00
8573;BME280;4324;42.012;24.872;2022-11-18T05:19:52;97943.84;;;8.34;100.00
8573;BME280;4324;42.012;24.872;2022-11-18T05:22:20;97917.28;;;8.20;100.00
8573;BME280;4324;42.012;24.872;2022-11-18T05:24:47;97942.56;;;8.30;100.00
8573;BME280;4324;42.012;24.872;2022-11-18T05:27:14;97855.09;;;7.65;100.00
8573;BME280;4324;42.012;24.872;2022-11-18T05:29:44;97906.63;;;7.91;100.00
8573;BME280;4324;42.012;24.872;2022-11-18T05:32:11;97840.22;;;7.49;100.00
8573;BME280;4324;42.012;24.872;2022-11-18T05:34:39;97920.41;;;8.01;100.00
8573;BME280;4324;42.012;24.872;2022-11-18T05:37:06;97839.03;;;7.52;100.00
8573;BME280;4324;42.012;24.872;2022-11-18T05:39:35;97835.91;;;7.57;100.00
8573;BME280;4324;42.012;24.872;2022-11-18T05:42:03;97944.59;;;8.28;100.00
8573;BME280;4324;42.012;24.872;2022-11-18T05:44:47;97930.41;;;8.29;100.00
8573;BME280;4324;42.012;24.872;2022-11-18T05:47:15;97946.47;;;8.42;100.00
8573;BME280;4324;42.012;24.872;2022-11-18T05:49:42;97935.31;;;8.32;100.00
8573;BME280;4324;42.012;24.872;2022-11-18T05:52:09;97939.31;;;8.28;100.00
8573;BME280;4324;42.012;24.872;2022-11-18T05:54:41;97962.38;;;8.25;100.00
8573;BME280;4324;42.012;24.872;2022-11-18T05:57:13;97975.63;;;8.17;100.00
8573;BME280;4324;42.012;24.872;2022-11-18T05:59:40;97989.56;;;8.03;100.00
8573;BME280;4324;42.012;24.872;2022-11-18T06:02:12;97995.44;;;7.90;100.00
8573;BME280;4324;42.012;24.872;2022-11-18T06:04:44;97987.13;;;7.70;100.00
8573;BME280;4324;42.012;24.872;2022-11-18T06:07:17;97988.72;;;7.80;100.00
8573;BME280;4324;42.012;24.872;2022-11-18T06:09:49;97983.81;;;7.76;100.00
8573;BME280;4324;42.012;24.872;2022-11-18T06:12:20;98001.19;;;7.94;100.00
8573;BME280;4324;42.012;24.872;2022-11-18T06:14:51;98007.41;;;8.01;100.00
8573;BME280;4324;42.012;24.872;2022-11-18T06:17:25;97962.38;;;7.80;100.00
8573;BME280;4324;42.012;24.872;2022-11-18T06:19:53;97937.59;;;7.66;100.00
8573;BME280;4324;42.012;24.872;2022-11-18T06:22:21;97913.41;;;7.62;100.00
8573;BME280;4324;42.012;24.872;2022-11-18T06:24:49;97980.31;;;8.07;100.00
8573;BME280;4324;42.012;24.872;2022-11-18T06:27:16;97994.50;;;8.29;100.00
8573;BME280;4324;42.012;24.872;2022-11-18T06:29:44;97933.13;;;7.97;100.00
8573;BME280;4324;42.012;24.872;2022-11-18T06:32:11;97972.25;;;8.32;100.00
8573;BME280;4324;42.012;24.872;2022-11-18T06:34:38;97907.22;;;8.01;100.00
8573;BME280;4324;42.012;24.872;2022-11-18T06:37:11;97977.91;;;8.66;100.00
8573;BME280;4324;42.012;24.872;2022-11-18T06:39:38;97910.56;;;8.33;100.00
8573;BME280;4324;42.012;24.872;2022-11-18T06:42:07;97981.78;;;8.93;100.00
8573;BME280;4324;42.012;24.872;2022-11-18T06:44:34;97977.78;;;8.98;100.00
8573;BME280;4324;42.012;24.872;2022-11-18T06:47:02;97972.13;;;9.01;100.00
8573;BME280;4324;42.012;24.872;2022-11-18T06:49:29;97961.03;;;8.90;100.00
8573;BME280;4324;42.012;24.872;2022-11-18T06:51:56;97928.97;;;8.79;100.00
8573;BME280;4324;42.012;24.872;2022-11-18T06:54:22;97945.72;;;9.01;100.00
8573;BME280;4324;42.012;24.872;2022-11-18T06:56:49;97915.69;;;8.87;100.00
8573;BME280;4324;42.012;24.872;2022-11-18T06:59:18;97971.69;;;9.27;100.00
8573;BME280;4324;42.012;24.872;2022-11-18T07:01:48;97966.13;;;9.36;100.00
8573;BME280;4324;42.012;24.872;2022-11-18T07:04:15;97960.56;;;9.46;100.00
8573;BME280;4324;42.012;24.872;2022-11-18T07:06:42;97981.25;;;9.57;100.00
8573;BME280;4324;42.012;24.872;2022-11-18T07:09:11;97929.81;;;9.24;100.00
8573;BME280;4324;42.012;24.872;2022-11-18T07:11:38;97906.31;;;9.14;100.00
8573;BME280;4324;42.012;24.872;2022-11-18T07:14:06;97893.00;;;9.22;100.00
8573;BME280;4324;42.012;24.872;2022-11-18T07:16:35;97893.44;;;9.26;100.00
8573;BME280;4324;42.012;24.872;2022-11-18T07:19:08;97855.69;;;9.10;100.00
8573;BME280;4324;42.012;24.872;2022-11-18T07:21:35;97931.53;;;9.67;100.00
8573;BME280;4324;42.012;24.872;2022-11-18T07:24:05;97863.28;;;9.35;100.00
8573;BME280;4324;42.012;24.872;2022-11-18T07:26:32;97953.44;;;9.98;100.00
8573;BME280;4324;42.012;24.872;2022-11-18T07:29:00;97949.34;;;9.95;100.00
8573;BME280;4324;42.012;24.872;2022-11-18T07:31:30;97966.91;;;10.03;100.00
8573;BME280;4324;42.012;24.872;2022-11-18T07:34:00;97907.38;;;9.70;100.00
8573;BME280;4324;42.012;24.872;2022-11-18T07:36:28;97897.72;;;9.63;100.00
8573;BME280;4324;42.012;24.872;2022-11-18T07:38:57;97906.75;;;9.68;100.00
8573;BME280;4324;42.012;24.872;2022-11-18T07:41:26;97933.69;;;9.79;100.00
8573;BME280;4324;42.012;24.872;2022-11-18T07:43:54;97887.66;;;9.52;100.00
8573;BME280;4324;42.012;24.872;2022-11-18T07:46:23;97961.16;;;9.99;100.00
8573;BME280;4324;42.012;24.872;2022-11-18T07:49:01;97953.22;;;9.99;100.00
8573;BME280;4324;42.012;24.872;2022-11-18T07:51:31;97933.84;;;9.92;100.00
8573;BME280;4324;42.012;24.872;2022-11-18T07:53:59;97899.38;;;9.85;100.00
8573;BME280;4324;42.012;24.872;2022-11-18T07:56:27;97886.81;;;9.87;100.00
8573;BME280;4324;42.012;24.872;2022-11-18T07:58:56;97953.44;;;10.40;100.00
8573;BME280;4324;42.012;24.872;2022-11-18T08:01:26;97883.72;;;10.05;100.00
8573;BME280;4324;42.012;24.872;2022-11-18T08:03:56;97934.41;;;10.52;100.00
8573;BME280;4324;42.012;24.872;2022-11-18T08:06:24;97942.47;;;10.65;100.00
8573;BME280;4324;42.012;24.872;2022-11-18T08:08:51;97911.88;;;10.62;100.00
8573;BME280;4324;42.012;24.872;2022-11-18T08:11:19;97883.75;;;10.55;100.00
8573;BME280;4324;42.012;24.872;2022-11-18T08:13:46;97953.06;;;11.00;100.00
8573;BME280;4324;42.012;24.872;2022-11-18T08:16:14;97963.38;;;11.16;100.00
8573;BME280;4324;42.012;24.872;2022-11-18T08:18:41;97869.53;;;10.62;100.00
8573;BME280;4324;42.012;24.872;2022-11-18T08:21:09;97875.06;;;10.68;100.00
8573;BME280;4324;42.012;24.872;2022-11-18T08:23:37;97911.47;;;10.94;100.00
8573;BME280;4324;42.012;24.872;2022-11-18T08:26:09;97874.50;;;10.72;100.00
8573;BME280;4324;42.012;24.872;2022-11-18T08:28:36;97874.94;;;10.82;100.00
8573;BME280;4324;42.012;24.872;2022-11-18T08:31:08;97900.16;;;11.06;100.00
8573;BME280;4324;42.012;24.872;2022-11-18T08:33:36;97939.44;;;11.44;100.00
8573;BME280;4324;42.012;24.872;2022-11-18T08:36:07;97954.69;;;11.77;100.00
8573;BME280;4324;42.012;24.872;2022-11-18T08:38:35;97897.31;;;11.62;100.00
8573;BME280;4324;42.012;24.872;2022-11-18T08:41:03;97842.84;;;11.53;100.00
8573;BME280;4324;42.012;24.872;2022-11-18T08:43:33;97950.31;;;12.30;100.00
8573;BME280;4324;42.012;24.872;2022-11-18T08:46:00;97953.22;;;12.42;100.00
8573;BME280;4324;42.012;24.872;2022-11-18T08:48:30;97867.41;;;11.89;100.00
8573;BME280;4324;42.012;24.872;2022-11-18T08:50:57;97955.25;;;12.47;100.00
8573;BME280;4324;42.012;24.872;2022-11-18T08:53:24;97919.69;;;12.21;100.00
8573;BME280;4324;42.012;24.872;2022-11-18T08:55:54;97961.56;;;12.52;100.00
8573;BME280;4324;42.012;24.872;2022-11-18T08:58:25;97880.88;;;12.00;100.00
8573;BME280;4324;42.012;24.872;2022-11-18T09:00:52;97863.56;;;11.91;100.00
8573;BME280;4324;42.012;24.872;2022-11-18T09:03:22;97928.50;;;12.35;100.00
8573;BME280;4324;42.012;24.872;2022-11-18T09:05:49;97950.56;;;12.55;100.00
8573;BME280;4324;42.012;24.872;2022-11-18T09:08:19;97929.94;;;12.51;100.00
8573;BME280;4324;42.012;24.872;2022-11-18T09:10:46;97954.44;;;12.73;100.00
8573;BME280;4324;42.012;24.872;2022-11-18T09:13:15;97955.25;;;12.80;100.00
8573;BME280;4324;42.012;24.872;2022-11-18T09:15:45;97956.88;;;12.81;100.00
8573;BME280;4324;42.012;24.872;2022-11-18T09:18:13;97878.88;;;12.42;100.00
8573;BME280;4324;42.012;24.872;2022-11-18T09:20:52;97872.72;;;12.48;100.00
8573;BME280;4324;42.012;24.872;2022-11-18T09:23:19;97942.09;;;13.12;100.00
8573;BME280;4324;42.012;24.872;2022-11-18T09:25:46;97887.75;;;13.01;100.00
8573;BME280;4324;42.012;24.872;2022-11-18T09:28:14;97898.34;;;13.27;100.00
8573;BME280;4324;42.012;24.872;2022-11-18T09:30:41;97900.31;;;13.45;100.00
8573;BME280;4324;42.012;24.872;2022-11-18T09:33:09;97839.09;;;13.07;100.00
8573;BME280;4324;42.012;24.872;2022-11-18T09:35:43;97857.03;;;13.31;100.00
8573;BME280;4324;42.012;24.872;2022-11-18T09:38:13;97863.88;;;13.52;100.00
8573;BME280;4324;42.012;24.872;2022-11-18T09:40:45;97781.81;;;13.18;100.00
8573;BME280;4324;42.012;24.872;2022-11-18T09:43:24;97840.69;;;13.66;100.00
8573;BME280;4324;42.012;24.872;2022-11-18T09:45:59;97769.09;;;13.20;100.00
8573;BME280;4324;42.012;24.872;2022-11-18T09:48:35;97827.00;;;13.63;100.00
8573;BME280;4324;42.012;24.872;2022-11-18T09:51:24;97809.72;;;13.47;100.00
8573;BME280;4324;42.012;24.872;2022-11-18T09:53:56;97852.94;;;13.67;100.00
8573;BME280;4324;42.012;24.872;2022-11-18T09:56:26;97810.13;;;13.44;100.00
8573;BME280;4324;42.012;24.872;2022-11-18T09:58:54;97800.16;;;13.32;100.00
8573;BME280;4324;42.012;24.872;2022-11-18T10:01:21;97785.88;;;13.27;100.00
8573;BME280;4324;42.012;24.872;2022-11-18T10:03:50;97738.97;;;13.01;100.00
8573;BME280;4324;42.012;24.872;2022-11-18T10:06:23;97836.00;;;13.62;100.00
8573;BME280;4324;42.012;24.872;2022-11-18T10:09:01;97815.97;;;13.59;100.00
8573;BME280;4324;42.012;24.872;2022-11-18T10:11:34;97810.03;;;13.57;100.00
8573;BME280;4324;42.012;24.872;2022-11-18T10:14:13;97787.41;;;13.48;100.00
8573;BME280;4324;42.012;24.872;2022-11-18T10:16:49;97817.91;;;13.77;100.00
8573;BME280;4324;42.012;24.872;2022-11-18T10:19:26;97808.38;;;13.94;100.00
8573;BME280;4324;42.012;24.872;2022-11-18T10:22:04;97816.56;;;13.93;100.00
8573;BME280;4324;42.012;24.872;2022-11-18T10:24:38;97790.53;;;13.70;100.00
8573;BME280;4324;42.012;24.872;2022-11-18T10:27:09;97805.13;;;13.86;100.00
8573;BME280;4324;42.012;24.872;2022-11-18T10:29:36;97817.09;;;14.01;100.00
8573;BME280;4324;42.012;24.872;2022-11-18T10:32:08;97794.19;;;14.00;100.00
8573;BME280;4324;42.012;24.872;2022-11-18T10:34:46;97822.66;;;14.25;100.00
8573;BME280;4324;42.012;24.872;2022-11-18T10:37:22;97805.47;;;14.21;100.00
8573;BME280;4324;42.012;24.872;2022-11-18T10:39:51;97809.91;;;14.27;100.00
8573;BME280;4324;42.012;24.872;2022-11-18T10:42:24;97723.31;;;13.81;100.00
8573;BME280;4324;42.012;24.872;2022-11-18T10:44:54;97791.09;;;14.47;100.00
8573;BME280;4324;42.012;24.872;2022-11-18T10:47:27;97790.03;;;14.55;100.00
8573;BME280;4324;42.012;24.872;2022-11-18T10:49:58;97795.34;;;14.55;100.00
8573;BME280;4324;42.012;24.872;2022-11-18T10:52:26;97794.56;;;14.47;100.00
8573;BME280;4324;42.012;24.872;2022-11-18T10:55:20;97772.09;;;14.43;100.00
8573;BME280;4324;42.012;24.872;2022-11-18T10:57:50;97769.44;;;14.43;100.00
8573;BME280;4324;42.012;24.872;2022-11-18T11:00:40;97774.50;;;14.45;100.00
8573;BME280;4324;42.012;24.872;2022-11-18T11:03:25;97770.28;;;14.37;100.00
8573;BME280;4324;42.012;24.872;2022-11-18T11:06:14;97764.66;;;14.27;100.00
8573;BME280;4324;42.012;24.872;2022-11-18T11:08:49;97752.88;;;13.98;100.00
8573;BME280;4324;42.012;24.872;2022-11-18T11:11:24;97736.28;;;13.71;100.00
8573;BME280;4324;42.012;24.872;2022-11-18T11:13:57;97742.66;;;13.70;100.00
8573;BME280;4324;42.012;24.872;2022-11-18T11:16:26;97754.16;;;13.89;100.00
8573;BME280;4324;42.012;24.872;2022-11-18T11:18:58;97689.22;;;13.71;100.00
8573;BME280;4324;42.012;24.872;2022-11-18T11:21:28;97723.00;;;14.14;100.00
8573;BME280;4324;42.012;24.872;2022-11-18T11:23:57;97729.69;;;14.42;100.00
8573;BME280;4324;42.012;24.872;2022-11-18T11:26:31;97700.75;;;14.27;100.00
8573;BME280;4324;42.012;24.872;2022-11-18T11:29:05;97725.91;;;14.31;100.00
8573;BME280;4324;42.012;24.872;2022-11-18T11:31:44;97746.94;;;14.39;100.00
8573;BME280;4324;42.012;24.872;2022-11-18T11:34:18;97688.81;;;13.93;100.00
8573;BME280;4324;42.012;24.872;2022-11-18T11:36:56;97735.91;;;14.36;100.00
8573;BME280;4324;42.012;24.872;2022-11-18T11:39:39;97739.97;;;14.38;100.00
8573;BME280;4324;42.012;24.872;2022-11-18T11:42:21;97730.28;;;14.44;100.00
8573;BME280;4324;42.012;24.872;2022-11-18T11:45:03;97700.03;;;14.38;100.00
8573;BME280;4324;42.012;24.872;2022-11-18T11:47:45;97726.31;;;14.53;100.00
8573;BME280;4324;42.012;24.872;2022-11-18T11:50:24;97720.78;;;14.55;100.00
8573;BME280;4324;42.012;24.872;2022-11-18T11:53:16;97711.16;;;14.54;100.00
8573;BME280;4324;42.012;24.872;2022-11-18T11:55:55;97714.41;;;14.56;100.00
8573;BME280;4324;42.012;24.872;2022-11-18T11:58:42;97702.41;;;14.46;100.00
8573;BME280;4324;42.012;24.872;2022-11-18T12:01:18;97699.13;;;14.44;100.00
8573;BME280;4324;42.012;24.872;2022-11-18T12:03:47;97710.84;;;14.43;100.00
8573;BME280;4324;42.012;24.872;2022-11-18T12:06:17;97711.72;;;14.37;100.00
8573;BME280;4324;42.012;24.872;2022-11-18T12:08:59;97673.47;;;14.13;100.00
8573;BME280;4324;42.012;24.872;2022-11-18T12:11:33;97709.13;;;14.49;100.00
8573;BME280;4324;42.012;24.872;2022-11-18T12:14:10;97698.88;;;14.52;100.00
8573;BME280;4324;42.012;24.872;2022-11-18T12:16:47;97676.34;;;14.48;100.00
8573;BME280;4324;42.012;24.872;2022-11-18T12:19:19;97668.00;;;14.45;100.00
8573;BME280;4324;42.012;24.872;2022-11-18T12:21:57;97702.44;;;14.65;100.00
8573;BME280;4324;42.012;24.872;2022-11-18T12:24:35;97705.53;;;14.62;100.00
8573;BME280;4324;42.012;24.872;2022-11-18T12:27:06;97702.06;;;14.61;100.00
8573;BME280;4324;42.012;24.872;2022-11-18T12:29:41;97695.91;;;14.61;100.00
8573;BME280;4324;42.012;24.872;2022-11-18T12:32:34;97690.06;;;14.52;100.00
8573;BME280;4324;42.012;24.872;2022-11-18T12:35:22;97682.13;;;14.45;100.00
8573;BME280;4324;42.012;24.872;2022-11-18T12:37:58;97656.31;;;14.27;100.00
8573;BME280;4324;42.012;24.872;2022-11-18T12:40:39;97701.97;;;14.49;100.00
8573;BME280;4324;42.012;24.872;2022-11-18T12:46:53;97681.88;;;14.54;100.00
8573;BME280;4324;42.012;24.872;2022-11-18T12:52:50;97627.25;;;14.26;100.00
8573;BME280;4324;42.012;24.872;2022-11-18T12:55:24;97679.25;;;14.47;100.00
8573;BME280;4324;42.012;24.872;2022-11-18T12:57:53;97683.59;;;14.23;100.00
8573;BME280;4324;42.012;24.872;2022-11-18T13:00:32;97683.75;;;14.10;100.00
8573;BME280;4324;42.012;24.872;2022-11-18T13:03:24;97679.59;;;13.95;100.00
8573;BME280;4324;42.012;24.872;2022-11-18T13:06:03;97662.56;;;13.78;100.00
8573;BME280;4324;42.012;24.872;2022-11-18T13:08:31;97657.25;;;13.78;100.00
8573;BME280;4324;42.012;24.872;2022-11-18T13:11:08;97670.06;;;13.88;100.00
8573;BME280;4324;42.012;24.872;2022-11-18T13:13:55;97661.53;;;13.79;100.00
8573;BME280;4324;42.012;24.872;2022-11-18T13:16:37;97670.53;;;13.78;100.00
8573;BME280;4324;42.012;24.872;2022-11-18T13:19:23;97678.31;;;13.79;100.00
8573;BME280;4324;42.012;24.872;2022-11-18T13:21:55;97658.63;;;13.62;100.00
8573;BME280;4324;42.012;24.872;2022-11-18T13:24:44;97666.09;;;13.72;100.00
8573;BME280;4324;42.012;24.872;2022-11-18T13:27:22;97653.69;;;13.66;100.00
8573;BME280;4324;42.012;24.872;2022-11-18T13:29:59;97638.97;;;13.63;100.00
8573;BME280;4324;42.012;24.872;2022-11-18T13:32:29;97613.22;;;13.39;100.00
8573;BME280;4324;42.012;24.872;2022-11-18T13:34:57;97649.84;;;13.62;100.00
8573;BME280;4324;42.012;24.872;2022-11-18T13:37:31;97593.25;;;13.29;100.00
8573;BME280;4324;42.012;24.872;2022-11-18T13:39:59;97630.38;;;13.43;100.00